Time;durP1;ratioP1;P1;durP2;ratioP2;P2;SDS_P1;SDS_P2;PMS_P1;PMS_P2;Temp;Humidity;BMP_temperature;BMP_pressure;BME280_temperature;BME280_humidity;BME280_pressure;Samples;Min_cycle;Max_cycle;Signal;HPM_P1;HPM_P2
2022/01/15 00:01:36;;;;;;;22.08;9.63;;;;;;;;;;5072132;28;20052;-67
2022/01/15 00:04:02;;;;;;;17.42;9.43;;;;;;;;;;5071958;28;20157;-67
2022/01/15 00:06:28;;;;;;;22.40;9.98;;;;;;;;;;5072203;28;20546;-68
2022/01/15 00:08:53;;;;;;;17.40;9.40;;;;;;;;;;5072293;28;20020;-68
2022/01/15 00:11:18;;;;;;;19.98;9.70;;;;;;;;;;5072280;28;20388;-68
2022/01/15 00:13:52;;;;;;;19.13;9.68;;;;;;;;;;5072224;28;20060;-68
2022/01/15 00:16:30;;;;;;;22.23;10.30;;;;;;;;;;5071574;28;20182;-68
2022/01/15 00:19:09;;;;;;;18.88;9.52;;;;;;;;;;5071917;28;20091;-67
2022/01/15 00:21:35;;;;;;;18.75;9.57;;;;;;;;;;5072011;28;20046;-68
2022/01/15 00:24:01;;;;;;;16.48;9.10;;;;;;;;;;5071684;28;20539;-67
2022/01/15 00:26:27;;;;;;;19.63;10.02;;;;;;;;;;5072093;28;20035;-67
2022/01/15 00:28:53;;;;;;;20.60;9.70;;;;;;;;;;5071976;28;20024;-67
2022/01/15 00:31:19;;;;;;;18.90;9.93;;;;;;;;;;5070773;28;20100;-67
2022/01/15 00:33:44;;;;;;;18.40;9.15;;;;;;;;;;5071565;28;20035;-68
2022/01/15 00:36:10;;;;;;;19.75;9.38;;;;;;;;;;5071720;28;20064;-67
2022/01/15 00:38:35;;;;;;;18.67;9.60;;;;;;;;;;5071667;28;20044;-68
2022/01/15 00:41:01;;;;;;;18.23;9.00;;;;;;;;;;5071653;28;20029;-67
2022/01/15 00:43:26;;;;;;;19.17;9.50;;;;;;;;;;5071569;28;20024;-68
2022/01/15 00:45:52;;;;;;;15.85;8.10;;;;;;;;;;5071141;28;20020;-68
2022/01/15 00:48:17;;;;;;;19.33;8.60;;;;;;;;;;5071418;28;20527;-67
2022/01/15 00:50:43;;;;;;;17.38;8.77;;;;;;;;;;5071248;28;20037;-67
2022/01/15 00:53:08;;;;;;;16.02;8.65;;;;;;;;;;5071431;28;20036;-68
2022/01/15 00:55:34;;;;;;;14.80;8.23;;;;;;;;;;5071193;28;20078;-68
2022/01/15 00:57:59;;;;;;;16.90;8.30;;;;;;;;;;5071361;28;20020;-68
2022/01/15 01:00:26;;;;;;;16.23;8.25;;;;;;;;;;5071132;28;20012;-68
2022/01/15 01:02:52;;;;;;;18.98;8.32;;;;;;;;;;5070912;28;20427;-68
2022/01/15 01:05:20;;;;;;;16.25;8.40;;;;;;;;;;5070871;28;20020;-67
2022/01/15 01:07:45;;;;;;;20.50;8.55;;;;;;;;;;5070921;28;20033;-68
2022/01/15 01:10:46;;;;;;;13.07;6.90;;;;;;;;;;5070941;28;20073;-68
2022/01/15 01:23:28;;;;;;;13.27;7.15;;;;;;;;;;5070235;28;20033;-68
2022/01/15 01:26:01;;;;;;;14.23;6.93;;;;;;;;;;5070654;28;20028;-68
2022/01/15 01:28:34;;;;;;;16.10;6.85;;;;;;;;;;5070503;28;20028;-68
2022/01/15 01:38:52;;;;;;;12.32;5.60;;;;;;;;;;5070695;28;20487;-68
2022/01/15 01:41:20;;;;;;;13.20;5.90;;;;;;;;;;5070255;28;20017;-67
2022/01/15 01:44:00;;;;;;;12.95;6.13;;;;;;;;;;5070172;28;20021;-69
2022/01/15 01:48:57;;;;;;;11.23;5.50;;;;;;;;;;5070608;28;20563;-67
2022/01/15 01:51:33;;;;;;;11.70;6.03;;;;;;;;;;5070726;28;20550;-67
2022/01/15 01:54:04;;;;;;;13.55;5.75;;;;;;;;;;5070136;28;20028;-66
2022/01/15 01:56:29;;;;;;;11.43;5.53;;;;;;;;;;5070075;28;20119;-68
2022/01/15 01:58:55;;;;;;;11.63;5.75;;;;;;;;;;5069964;28;20104;-68
2022/01/15 02:01:21;;;;;;;9.93;5.53;;;;;;;;;;5070192;28;20388;-68
2022/01/15 02:03:46;;;;;;;11.55;5.22;;;;;;;;;;5070158;28;20017;-68
2022/01/15 02:06:12;;;;;;;10.02;5.25;;;;;;;;;;5070125;28;20119;-66
2022/01/15 02:08:38;;;;;;;11.27;5.78;;;;;;;;;;5070673;28;20029;-67
2022/01/15 02:11:05;;;;;;;9.98;5.10;;;;;;;;;;5070065;28;20061;-68
2022/01/15 02:13:32;;;;;;;11.38;5.55;;;;;;;;;;5070002;28;20025;-66
2022/01/15 02:15:58;;;;;;;11.95;5.50;;;;;;;;;;5069616;28;20032;-67
2022/01/15 02:18:25;;;;;;;10.15;5.50;;;;;;;;;;5069997;28;20032;-67
2022/01/15 02:23:51;;;;;;;11.25;5.40;;;;;;;;;;5049562;28;20041;-67
2022/01/15 02:26:25;;;;;;;11.68;5.28;;;;;;;;;;5069958;28;20108;-67
2022/01/15 02:28:55;;;;;;;11.88;5.57;;;;;;;;;;5070174;28;20364;-67
2022/01/15 02:31:23;;;;;;;11.60;5.57;;;;;;;;;;5070004;28;20024;-66
2022/01/15 02:33:51;;;;;;;11.10;5.07;;;;;;;;;;5069672;28;20506;-66
2022/01/15 02:36:19;;;;;;;11.35;5.20;;;;;;;;;;5068700;28;20054;-68
2022/01/15 02:38:46;;;;;;;10.07;4.93;;;;;;;;;;5069927;28;20475;-67
2022/01/15 02:41:13;;;;;;;9.27;4.80;;;;;;;;;;5069904;28;20070;-68
2022/01/15 02:43:38;;;;;;;10.90;4.90;;;;;;;;;;5069972;28;20054;-67
2022/01/15 02:46:21;;;;;;;11.40;4.80;;;;;;;;;;5069672;28;20504;-67
2022/01/15 02:48:52;;;;;;;8.30;4.35;;;;;;;;;;5069713;28;20028;-67
2022/01/15 02:51:25;;;;;;;8.77;4.68;;;;;;;;;;5069886;28;20045;-67
2022/01/15 02:53:54;;;;;;;10.55;4.70;;;;;;;;;;5070330;28;20055;-67
2022/01/15 02:56:40;;;;;;;11.27;4.80;;;;;;;;;;5073708;28;20067;-67
2022/01/15 02:59:09;;;;;;;9.18;4.45;;;;;;;;;;5073547;28;20029;-67
2022/01/15 03:01:35;;;;;;;9.55;4.65;;;;;;;;;;5073801;28;20031;-67
2022/01/15 03:04:00;;;;;;;8.77;4.20;;;;;;;;;;5073436;28;20033;-67
2022/01/15 03:06:26;;;;;;;9.88;4.60;;;;;;;;;;5073456;28;20044;-66
2022/01/15 03:08:52;;;;;;;13.35;4.95;;;;;;;;;;5071922;28;20549;-68
2022/01/15 03:11:19;;;;;;;8.25;4.30;;;;;;;;;;5073472;28;20404;-68
2022/01/15 03:13:45;;;;;;;9.02;4.25;;;;;;;;;;5073084;28;20035;-67
2022/01/15 03:16:16;;;;;;;9.30;4.55;;;;;;;;;;5072894;28;20060;-67
2022/01/15 03:18:43;;;;;;;10.57;4.60;;;;;;;;;;5073282;28;20028;-67
2022/01/15 03:21:08;;;;;;;9.25;4.53;;;;;;;;;;5073144;28;20036;-68
2022/01/15 03:23:34;;;;;;;9.88;4.65;;;;;;;;;;5072731;28;20032;-66
2022/01/15 03:26:00;;;;;;;11.95;4.93;;;;;;;;;;5072998;28;20475;-66
2022/01/15 03:28:25;;;;;;;9.48;4.43;;;;;;;;;;5073478;28;20036;-67
2022/01/15 03:30:51;;;;;;;10.40;4.97;;;;;;;;;;5072922;28;20100;-68
2022/01/15 03:33:17;;;;;;;7.50;4.22;;;;;;;;;;5073118;28;20108;-68
2022/01/15 03:35:43;;;;;;;9.05;4.70;;;;;;;;;;5072758;28;20209;-68
2022/01/15 03:38:08;;;;;;;10.27;4.88;;;;;;;;;;5072782;28;20035;-68
2022/01/15 03:40:35;;;;;;;14.88;5.82;;;;;;;;;;5072466;28;20051;-66
2022/01/15 03:43:02;;;;;;;9.52;4.60;;;;;;;;;;5072730;28;20498;-68
2022/01/15 03:45:27;;;;;;;9.10;4.72;;;;;;;;;;5072440;28;20353;-66
2022/01/15 03:47:54;;;;;;;10.73;4.80;;;;;;;;;;5072770;28;20069;-67
2022/01/15 03:50:19;;;;;;;9.43;4.60;;;;;;;;;;5072640;28;20486;-68
2022/01/15 03:52:46;;;;;;;9.93;4.20;;;;;;;;;;5072799;28;20055;-67
2022/01/15 03:55:13;;;;;;;21.15;9.65;;;;;;;;;;5072246;28;20373;-68
2022/01/15 03:57:39;;;;;;;21.75;9.73;;;;;;;;;;5072395;28;20028;-68
2022/01/15 04:00:11;;;;;;;10.95;5.30;;;;;;;;;;5072364;28;20137;-67
2022/01/15 04:02:37;;;;;;;16.13;7.13;;;;;;;;;;5072633;28;20028;-67
2022/01/15 04:05:02;;;;;;;22.85;10.60;;;;;;;;;;5071372;28;20445;-67
2022/01/15 04:07:28;;;;;;;21.35;9.98;;;;;;;;;;5072029;28;20229;-68
2022/01/15 04:09:54;;;;;;;49.75;20.02;;;;;;;;;;5072144;28;20024;-68
2022/01/15 04:12:19;;;;;;;29.92;11.80;;;;;;;;;;5072509;28;20028;-68
2022/01/15 04:14:44;;;;;;;48.92;19.73;;;;;;;;;;5071748;28;20055;-67
2022/01/15 04:17:10;;;;;;;29.30;12.23;;;;;;;;;;5071913;28;20139;-67
2022/01/15 04:19:36;;;;;;;14.45;7.18;;;;;;;;;;5072339;28;20021;-68
2022/01/15 04:22:03;;;;;;;8.82;4.57;;;;;;;;;;5072159;28;20025;-68
2022/01/15 04:24:28;;;;;;;10.45;5.13;;;;;;;;;;5071891;28;20025;-68
2022/01/15 04:26:53;;;;;;;13.55;7.15;;;;;;;;;;5071980;28;20038;-69
2022/01/15 04:29:21;;;;;;;12.57;6.15;;;;;;;;;;5071502;28;20023;-66
2022/01/15 04:31:47;;;;;;;11.57;5.53;;;;;;;;;;5071756;28;20074;-68
2022/01/15 04:34:19;;;;;;;10.18;5.20;;;;;;;;;;5071582;28;20559;-68
2022/01/15 04:36:45;;;;;;;11.43;6.10;;;;;;;;;;5070394;28;20103;-68
2022/01/15 04:39:11;;;;;;;11.05;5.43;;;;;;;;;;5071742;28;20028;-68
2022/01/15 04:41:37;;;;;;;8.93;3.95;;;;;;;;;;5071602;28;20044;-66
2022/01/15 04:44:07;;;;;;;10.23;4.43;;;;;;;;;;5071245;28;20232;-67
2022/01/15 04:46:34;;;;;;;8.80;4.60;;;;;;;;;;5071579;28;20033;-67
2022/01/15 04:49:00;;;;;;;8.48;4.40;;;;;;;;;;5071424;28;20035;-66
2022/01/15 04:51:26;;;;;;;10.18;4.53;;;;;;;;;;5071510;28;20060;-67
2022/01/15 04:53:51;;;;;;;7.97;4.13;;;;;;;;;;5071240;28;20437;-66
2022/01/15 04:56:17;;;;;;;8.15;4.32;;;;;;;;;;5071201;28;20408;-68
2022/01/15 04:58:42;;;;;;;7.13;3.63;;;;;;;;;;5071320;28;20031;-67
2022/01/15 05:01:08;;;;;;;9.50;4.20;;;;;;;;;;5071215;28;20040;-68
2022/01/15 05:03:33;;;;;;;9.13;4.03;;;;;;;;;;5071169;28;20059;-67
2022/01/15 05:05:59;;;;;;;12.02;4.18;;;;;;;;;;5069696;28;20032;-68
2022/01/15 05:08:24;;;;;;;7.30;3.67;;;;;;;;;;5071142;28;20016;-67
2022/01/15 05:10:50;;;;;;;8.05;4.07;;;;;;;;;;5071101;28;20107;-67
2022/01/15 05:13:19;;;;;;;9.50;3.72;;;;;;;;;;5071100;28;20383;-68
2022/01/15 05:15:45;;;;;;;8.63;3.92;;;;;;;;;;5070693;28;20491;-67
2022/01/15 05:18:11;;;;;;;9.00;3.63;;;;;;;;;;5070168;28;20041;-67
2022/01/15 05:20:41;;;;;;;9.68;3.80;;;;;;;;;;5070821;28;20167;-66
2022/01/15 05:23:09;;;;;;;11.38;3.80;;;;;;;;;;5070807;28;20025;-67
2022/01/15 05:25:34;;;;;;;9.80;3.92;;;;;;;;;;5070719;28;20251;-69
2022/01/15 05:28:00;;;;;;;6.93;3.47;;;;;;;;;;5070849;28;20239;-68
2022/01/15 05:30:26;;;;;;;8.35;3.58;;;;;;;;;;5070549;28;20384;-67
2022/01/15 05:32:52;;;;;;;8.43;3.80;;;;;;;;;;5070738;28;20028;-67
2022/01/15 05:35:18;;;;;;;8.40;3.67;;;;;;;;;;5070253;28;20028;-66
2022/01/15 05:37:43;;;;;;;6.97;3.45;;;;;;;;;;5070981;28;20023;-66
2022/01/15 05:40:09;;;;;;;8.13;3.60;;;;;;;;;;5070797;28;20031;-68
2022/01/15 05:42:35;;;;;;;8.05;3.80;;;;;;;;;;5070770;28;20048;-67
2022/01/15 05:45:00;;;;;;;6.93;3.53;;;;;;;;;;5070706;28;20081;-68
2022/01/15 05:47:26;;;;;;;8.48;3.65;;;;;;;;;;5070679;28;20025;-66
2022/01/15 05:49:51;;;;;;;9.30;3.80;;;;;;;;;;5070233;28;20044;-66
2022/01/15 05:52:17;;;;;;;15.02;7.15;;;;;;;;;;5070304;28;20133;-68
2022/01/15 05:54:42;;;;;;;13.82;7.05;;;;;;;;;;5070397;28;20028;-68
2022/01/15 05:57:08;;;;;;;11.30;6.00;;;;;;;;;;5070235;28;20160;-66
2022/01/15 05:59:34;;;;;;;13.18;6.10;;;;;;;;;;5070237;28;20095;-67
2022/01/15 06:02:00;;;;;;;11.10;5.65;;;;;;;;;;5070416;28;20024;-67
2022/01/15 06:04:25;;;;;;;9.63;4.82;;;;;;;;;;5070334;28;20443;-66
2022/01/15 06:06:51;;;;;;;11.48;4.75;;;;;;;;;;5070192;28;20107;-66
2022/01/15 06:09:16;;;;;;;11.52;4.80;;;;;;;;;;5069862;28;20074;-68
2022/01/15 06:11:42;;;;;;;10.18;4.93;;;;;;;;;;5070304;28;20074;-68
2022/01/15 06:14:08;;;;;;;11.85;4.82;;;;;;;;;;5070144;28;20398;-68
2022/01/15 06:16:33;;;;;;;9.50;5.03;;;;;;;;;;5069851;28;20052;-67
2022/01/15 06:18:59;;;;;;;9.88;4.35;;;;;;;;;;5069964;28;20451;-68
2022/01/15 06:21:24;;;;;;;10.98;5.00;;;;;;;;;;5070125;28;20070;-67
2022/01/15 06:23:49;;;;;;;10.60;5.05;;;;;;;;;;5070180;28;20021;-67
2022/01/15 06:26:15;;;;;;;11.90;5.25;;;;;;;;;;5069860;28;20055;-67
2022/01/15 06:28:40;;;;;;;11.05;5.22;;;;;;;;;;5070183;28;20020;-68
2022/01/15 06:31:06;;;;;;;10.40;5.07;;;;;;;;;;5074091;28;20032;-67
2022/01/15 06:33:32;;;;;;;10.02;5.38;;;;;;;;;;5074280;28;20032;-67
2022/01/15 06:35:58;;;;;;;13.43;4.88;;;;;;;;;;5073929;28;20078;-68
2022/01/15 06:38:23;;;;;;;13.43;4.68;;;;;;;;;;5074246;28;20325;-67
2022/01/15 06:40:49;;;;;;;9.15;4.45;;;;;;;;;;5073910;28;20056;-68
2022/01/15 06:43:14;;;;;;;9.60;4.30;;;;;;;;;;5073759;28;20024;-69
2022/01/15 06:45:40;;;;;;;10.48;4.40;;;;;;;;;;5074070;28;20114;-69
2022/01/15 06:48:05;;;;;;;8.85;4.22;;;;;;;;;;5073792;28;20021;-68
2022/01/15 06:50:31;;;;;;;7.80;4.38;;;;;;;;;;5073655;28;20021;-68
2022/01/15 06:52:58;;;;;;;8.77;4.20;;;;;;;;;;5073621;28;20029;-67
2022/01/15 06:55:23;;;;;;;7.93;3.92;;;;;;;;;;5073663;28;20476;-68
2022/01/15 06:57:49;;;;;;;9.90;4.30;;;;;;;;;;5073663;28;20032;-67
2022/01/15 07:00:16;;;;;;;11.52;4.18;;;;;;;;;;5073177;28;20028;-68
2022/01/15 07:02:41;;;;;;;10.98;4.50;;;;;;;;;;5073446;28;20028;-67
2022/01/15 07:05:08;;;;;;;7.70;4.28;;;;;;;;;;5073336;28;20027;-69
2022/01/15 07:07:34;;;;;;;9.13;4.03;;;;;;;;;;5073423;28;20171;-68
2022/01/15 07:10:00;;;;;;;10.45;4.05;;;;;;;;;;5073439;28;20032;-68
2022/01/15 07:12:25;;;;;;;8.43;4.72;;;;;;;;;;5073427;28;20024;-67
2022/01/15 07:14:51;;;;;;;11.20;4.53;;;;;;;;;;5073520;28;20040;-69
2022/01/15 07:17:16;;;;;;;7.97;4.45;;;;;;;;;;5072926;28;20474;-66
2022/01/15 07:19:42;;;;;;;10.55;5.35;;;;;;;;;;5072893;28;20031;-69
2022/01/15 07:22:08;;;;;;;9.30;4.72;;;;;;;;;;5073097;28;20480;-66
2022/01/15 07:24:34;;;;;;;12.20;5.07;;;;;;;;;;5073010;28;20086;-67
2022/01/15 07:27:00;;;;;;;9.68;4.25;;;;;;;;;;5072989;28;20029;-68
2022/01/15 07:29:25;;;;;;;8.85;4.53;;;;;;;;;;5072805;28;20024;-68
2022/01/15 07:31:53;;;;;;;12.48;4.65;;;;;;;;;;5073042;28;20045;-68
2022/01/15 07:34:19;;;;;;;12.18;5.50;;;;;;;;;;5072834;28;20027;-67
2022/01/15 07:36:52;;;;;;;11.00;5.30;;;;;;;;;;5072886;28;20032;-68
2022/01/15 07:39:18;;;;;;;13.40;5.22;;;;;;;;;;5072531;28;20435;-68
2022/01/15 07:41:43;;;;;;;11.68;5.30;;;;;;;;;;5072711;28;20028;-68
2022/01/15 07:44:09;;;;;;;13.85;5.93;;;;;;;;;;5072722;28;20032;-67
2022/01/15 07:46:35;;;;;;;11.35;5.38;;;;;;;;;;5072828;28;20043;-69
2022/01/15 07:49:00;;;;;;;11.82;6.18;;;;;;;;;;5072451;28;20032;-66
2022/01/15 07:51:26;;;;;;;12.18;6.05;;;;;;;;;;5072426;28;20020;-67
2022/01/15 07:53:51;;;;;;;10.48;6.05;;;;;;;;;;5072673;28;20035;-66
2022/01/15 07:56:17;;;;;;;13.77;5.82;;;;;;;;;;5072536;28;20524;-68
2022/01/15 07:58:43;;;;;;;13.43;5.95;;;;;;;;;;5072480;28;20029;-66
2022/01/15 08:01:08;;;;;;;15.60;6.38;;;;;;;;;;5072112;28;20029;-68
2022/01/15 08:03:34;;;;;;;15.55;7.60;;;;;;;;;;5072565;28;20294;-69
2022/01/15 08:06:00;;;;;;;14.93;6.78;;;;;;;;;;5072206;28;20020;-70
2022/01/15 08:08:25;;;;;;;14.63;6.63;;;;;;;;;;5072239;28;20179;-70
2022/01/15 08:10:51;;;;;;;14.32;7.20;;;;;;;;;;5071781;28;20107;-69
2022/01/15 08:13:16;;;;;;;15.48;7.07;;;;;;;;;;5072214;28;20020;-68
2022/01/15 08:15:42;;;;;;;17.38;7.00;;;;;;;;;;5071925;28;20024;-69
2022/01/15 08:18:07;;;;;;;13.43;6.63;;;;;;;;;;5071661;28;20040;-68
2022/01/15 08:20:33;;;;;;;13.95;5.72;;;;;;;;;;5071947;28;20049;-68
2022/01/15 08:22:58;;;;;;;10.80;4.32;;;;;;;;;;5071932;28;20020;-69
2022/01/15 08:25:25;;;;;;;9.05;4.15;;;;;;;;;;5072046;28;20036;-67
2022/01/15 08:27:52;;;;;;;14.40;4.68;;;;;;;;;;5072206;28;20102;-68
2022/01/15 08:30:18;;;;;;;6.70;2.83;;;;;;;;;;5071388;28;20028;-67
2022/01/15 08:32:44;;;;;;;15.43;5.70;;;;;;;;;;5071846;28;20036;-67
2022/01/15 08:35:10;;;;;;;12.77;5.53;;;;;;;;;;5071814;28;20020;-69
2022/01/15 08:37:39;;;;;;;12.25;5.75;;;;;;;;;;5072201;28;20088;-69
2022/01/15 08:40:07;;;;;;;12.63;5.55;;;;;;;;;;5071499;28;20021;-69
2022/01/15 08:42:34;;;;;;;11.25;5.43;;;;;;;;;;5071527;28;20549;-67
2022/01/15 08:45:00;;;;;;;10.77;4.15;;;;;;;;;;5071406;28;20082;-67
2022/01/15 08:47:25;;;;;;;8.18;3.83;;;;;;;;;;5071960;28;20020;-69
2022/01/15 08:49:51;;;;;;;10.93;4.80;;;;;;;;;;5071493;28;20099;-69
2022/01/15 08:52:16;;;;;;;7.25;3.80;;;;;;;;;;5071124;28;20025;-69
2022/01/15 08:54:41;;;;;;;6.50;3.20;;;;;;;;;;5071380;28;20032;-68
2022/01/15 08:57:07;;;;;;;5.95;3.22;;;;;;;;;;5071335;28;20028;-68
2022/01/15 08:59:32;;;;;;;8.32;3.15;;;;;;;;;;5070906;28;20023;-68
2022/01/15 09:01:59;;;;;;;9.23;4.03;;;;;;;;;;5071103;28;20024;-69
2022/01/15 09:04:25;;;;;;;10.40;3.90;;;;;;;;;;5071316;28;20271;-69
2022/01/15 09:06:51;;;;;;;9.32;3.60;;;;;;;;;;5071188;28;20032;-68
2022/01/15 09:09:16;;;;;;;10.77;3.90;;;;;;;;;;5071115;28;20038;-69
2022/01/15 09:11:42;;;;;;;7.70;3.50;;;;;;;;;;5070952;28;20380;-69
2022/01/15 09:14:10;;;;;;;7.70;3.60;;;;;;;;;;5070647;28;20395;-68
2022/01/15 09:16:35;;;;;;;11.25;4.63;;;;;;;;;;5070541;28;20040;-67
2022/01/15 09:19:01;;;;;;;10.13;4.15;;;;;;;;;;5070800;28;20027;-68
2022/01/15 09:21:26;;;;;;;9.52;4.00;;;;;;;;;;5070700;28;20017;-68
2022/01/15 09:23:52;;;;;;;6.90;4.10;;;;;;;;;;5070878;28;20051;-67
2022/01/15 09:26:21;;;;;;;7.60;4.05;;;;;;;;;;5071318;28;20047;-67
2022/01/15 09:31:31;;;;;;;8.63;4.00;;;;;;;;;;5070843;28;20090;-67
2022/01/15 09:33:57;;;;;;;9.35;3.97;;;;;;;;;;5070512;28;20472;-68
2022/01/15 09:36:22;;;;;;;6.80;3.40;;;;;;;;;;5070568;28;20033;-68
2022/01/15 09:38:48;;;;;;;8.52;3.90;;;;;;;;;;5070596;28;20025;-68
2022/01/15 09:41:14;;;;;;;9.25;3.90;;;;;;;;;;5070205;28;20032;-67
2022/01/15 09:43:40;;;;;;;7.57;3.63;;;;;;;;;;5070621;28;20020;-69
2022/01/15 09:46:07;;;;;;;8.48;4.00;;;;;;;;;;5070593;28;20031;-68
2022/01/15 09:48:33;;;;;;;8.75;4.38;;;;;;;;;;5070739;28;20024;-69
2022/01/15 09:51:00;;;;;;;8.27;4.20;;;;;;;;;;5070109;28;20040;-68
2022/01/15 09:53:25;;;;;;;8.65;4.70;;;;;;;;;;5070705;28;20123;-69
2022/01/15 09:55:52;;;;;;;12.52;5.03;;;;;;;;;;5070575;28;20535;-69
2022/01/15 09:58:18;;;;;;;12.13;5.63;;;;;;;;;;5070553;28;20021;-69
2022/01/15 10:00:44;;;;;;;10.95;5.53;;;;;;;;;;5070122;28;20494;-67
2022/01/15 10:03:09;;;;;;;10.05;4.60;;;;;;;;;;5068831;28;20414;-68
2022/01/15 10:05:35;;;;;;;12.65;5.15;;;;;;;;;;5070148;28;20017;-68
2022/01/15 10:08:08;;;;;;;11.95;5.47;;;;;;;;;;5070117;28;20360;-68
2022/01/15 10:10:34;;;;;;;11.73;5.20;;;;;;;;;;5070359;28;20032;-67
2022/01/15 10:13:15;;;;;;;9.13;4.43;;;;;;;;;;5070611;28;20020;-68
2022/01/15 10:15:42;;;;;;;;;;;;;;;;;;5070630;28;20036;-68
2022/01/15 10:18:30;;;;;;;10.52;4.45;;;;;;;;;;5070033;28;20372;-67
2022/01/15 10:21:22;;;;;;;9.65;4.35;;;;;;;;;;5069772;28;20240;-68
2022/01/15 10:23:52;;;;;;;7.35;3.72;;;;;;;;;;5070216;28;20090;-68
2022/01/15 10:26:21;;;;;;;8.10;3.47;;;;;;;;;;5069882;28;20028;-68
2022/01/15 10:28:49;;;;;;;10.35;4.05;;;;;;;;;;5069654;28;20036;-68
2022/01/15 10:31:20;;;;;;;8.82;3.90;;;;;;;;;;5069646;28;20572;-69
2022/01/15 10:33:46;;;;;;;7.35;3.58;;;;;;;;;;5070182;28;20472;-68
2022/01/15 10:36:38;;;;;;;7.45;3.75;;;;;;;;;;5069910;28;20033;-68
2022/01/15 10:39:18;;;;;;;8.70;3.55;;;;;;;;;;5067684;28;20059;-69
2022/01/15 10:41:44;;;;;;;9.68;3.78;;;;;;;;;;5070037;28;20167;-68
2022/01/15 10:44:32;;;;;;;7.88;3.63;;;;;;;;;;5069745;28;20113;-68
2022/01/15 10:47:12;;;;;;;10.00;4.15;;;;;;;;;;5070081;28;20016;-68
2022/01/15 10:49:40;;;;;;;7.78;3.22;;;;;;;;;;5069789;28;20028;-68
2022/01/15 10:52:19;;;;;;;7.65;3.60;;;;;;;;;;5069543;28;20021;-68
2022/01/15 10:54:58;;;;;;;10.23;3.58;;;;;;;;;;5069688;28;20021;-68
2022/01/15 10:57:33;;;;;;;8.57;3.65;;;;;;;;;;5069599;28;20033;-69
2022/01/15 11:00:10;;;;;;;8.82;3.90;;;;;;;;;;5069520;28;20400;-69
2022/01/15 11:02:36;;;;;;;9.15;3.42;;;;;;;;;;5069616;28;20071;-68
2022/01/15 11:05:18;;;;;;;7.03;3.63;;;;;;;;;;5069689;28;20117;-67
2022/01/15 11:07:43;;;;;;;9.35;3.75;;;;;;;;;;5069745;28;20028;-67
2022/01/15 11:10:11;;;;;;;7.47;3.70;;;;;;;;;;5069496;28;20396;-67
2022/01/15 11:12:36;;;;;;;7.03;3.53;;;;;;;;;;5069611;28;20036;-67
2022/01/15 11:15:02;;;;;;;11.90;3.35;;;;;;;;;;5070168;28;20024;-68
2022/01/15 11:17:28;;;;;;;7.95;3.10;;;;;;;;;;5072877;28;20072;-67
2022/01/15 11:19:54;;;;;;;6.43;2.88;;;;;;;;;;5073289;28;20189;-68
2022/01/15 11:22:22;;;;;;;8.55;3.05;;;;;;;;;;5073240;28;20043;-69
2022/01/15 11:24:49;;;;;;;7.93;3.40;;;;;;;;;;5073240;28;20032;-69
2022/01/15 11:27:15;;;;;;;5.18;2.90;;;;;;;;;;5071813;28;20518;-68
2022/01/15 11:29:43;;;;;;;5.43;2.90;;;;;;;;;;5072989;28;20051;-69
2022/01/15 11:32:12;;;;;;;7.00;2.92;;;;;;;;;;5072855;28;20028;-69
2022/01/15 11:34:39;;;;;;;6.05;2.50;;;;;;;;;;5072863;28;20497;-70
2022/01/15 11:37:19;;;;;;;4.43;2.33;;;;;;;;;;5072937;28;20032;-68
2022/01/15 11:39:45;;;;;;;8.90;2.78;;;;;;;;;;5072849;28;20500;-69
2022/01/15 11:42:35;;;;;;;7.22;2.78;;;;;;;;;;5072549;28;20507;-68
2022/01/15 11:45:01;;;;;;;8.57;2.70;;;;;;;;;;5072576;28;20583;-69
2022/01/15 11:47:27;;;;;;;5.15;2.42;;;;;;;;;;5073020;28;20078;-69
2022/01/15 11:49:53;;;;;;;5.60;2.40;;;;;;;;;;5072588;28;20020;-68
2022/01/15 11:52:22;;;;;;;7.30;2.60;;;;;;;;;;5072462;28;20388;-67
2022/01/15 11:54:51;;;;;;;7.03;2.40;;;;;;;;;;5072448;28;20063;-68
2022/01/15 11:57:50;;;;;;;6.93;2.67;;;;;;;;;;5072824;28;20029;-68
2022/01/15 12:00:27;;;;;;;8.77;2.70;;;;;;;;;;5070147;28;20036;-67
2022/01/15 12:03:07;;;;;;;6.88;2.83;;;;;;;;;;5072830;28;20100;-67
2022/01/15 12:05:40;;;;;;;4.53;2.72;;;;;;;;;;5072236;28;20040;-69
2022/01/15 12:08:08;;;;;;;7.35;2.58;;;;;;;;;;5072378;28;20028;-69
2022/01/15 12:10:41;;;;;;;6.93;2.40;;;;;;;;;;5072059;28;20415;-68
2022/01/15 12:13:11;;;;;;;4.32;2.28;;;;;;;;;;5072428;28;20142;-69
2022/01/15 12:15:37;;;;;;;;;;;;;;;;;;5072910;28;20086;-68
2022/01/15 12:18:17;;;;;;;6.18;2.67;;;;;;;;;;5071944;28;19916;-68
2022/01/15 12:20:43;;;;;;;6.90;2.60;;;;;;;;;;5071885;28;20091;-68
2022/01/15 12:23:18;;;;;;;7.40;2.97;;;;;;;;;;5072079;28;20167;-68
2022/01/15 12:25:44;;;;;;;7.45;2.38;;;;;;;;;;5071670;28;20032;-68
2022/01/15 12:28:13;;;;;;;5.15;2.50;;;;;;;;;;5071193;28;20050;-68
2022/01/15 12:30:46;;;;;;;5.60;2.30;;;;;;;;;;5072016;28;20054;-68
2022/01/15 12:33:13;;;;;;;4.85;2.85;;;;;;;;;;5071987;28;20028;-67
2022/01/15 12:35:41;;;;;;;5.93;2.72;;;;;;;;;;5071975;28;20111;-68
2022/01/15 12:38:13;;;;;;;6.03;3.08;;;;;;;;;;5071850;28;20028;-68
2022/01/15 12:41:16;;;;;;;7.95;2.78;;;;;;;;;;5071508;28;20056;-67
2022/01/15 12:43:43;;;;;;;9.65;2.47;;;;;;;;;;5063109;28;20109;-68
2022/01/15 12:46:15;;;;;;;6.25;2.85;;;;;;;;;;5071799;28;20468;-69
2022/01/15 12:48:44;;;;;;;5.38;2.70;;;;;;;;;;5071716;28;20032;-67
2022/01/15 12:51:12;;;;;;;6.95;3.00;;;;;;;;;;5071375;28;20028;-68
2022/01/15 12:53:42;;;;;;;10.02;2.80;;;;;;;;;;5071341;28;20365;-67
2022/01/15 12:56:10;;;;;;;6.45;2.60;;;;;;;;;;5071251;28;20032;-67
2022/01/15 12:58:36;;;;;;;6.45;2.90;;;;;;;;;;5071615;28;20167;-67
2022/01/15 13:01:03;;;;;;;8.93;3.10;;;;;;;;;;5071454;28;20119;-67
2022/01/15 13:03:29;;;;;;;6.15;2.60;;;;;;;;;;5071838;28;20033;-67
2022/01/15 13:06:01;;;;;;;8.85;3.20;;;;;;;;;;5071412;28;20040;-68
2022/01/15 13:08:36;;;;;;;10.80;2.75;;;;;;;;;;5071428;28;20024;-68
2022/01/15 13:11:07;;;;;;;8.18;2.70;;;;;;;;;;5071273;28;20028;-68
2022/01/15 13:13:38;;;;;;;9.82;3.05;;;;;;;;;;5070903;28;20028;-68
2022/01/15 13:16:15;;;;;;;5.43;2.58;;;;;;;;;;5070607;28;20106;-68
2022/01/15 13:18:43;;;;;;;7.38;2.30;;;;;;;;;;5070968;28;20024;-68
2022/01/15 13:21:30;;;;;;;7.72;2.50;;;;;;;;;;5070756;28;20043;-68
2022/01/15 13:24:11;;;;;;;7.32;2.70;;;;;;;;;;5070954;28;20476;-68
2022/01/15 13:26:40;;;;;;;6.15;2.47;;;;;;;;;;5070929;28;20024;-68
2022/01/15 13:29:14;;;;;;;6.80;2.42;;;;;;;;;;5070280;28;20036;-68
2022/01/15 13:31:42;;;;;;;7.43;2.58;;;;;;;;;;5070602;28;20389;-67
2022/01/15 13:34:10;;;;;;;6.25;2.40;;;;;;;;;;5070690;28;20031;-67
2022/01/15 13:36:37;;;;;;;7.25;2.60;;;;;;;;;;5070492;28;20116;-67
2022/01/15 13:39:04;;;;;;;6.63;2.40;;;;;;;;;;5070614;28;20027;-67
2022/01/15 13:41:35;;;;;;;9.50;2.60;;;;;;;;;;5070395;28;20365;-67
2022/01/15 13:44:20;;;;;;;5.80;2.55;;;;;;;;;;5070366;28;20028;-68
2022/01/15 13:46:49;;;;;;;6.10;2.63;;;;;;;;;;5070449;28;20161;-68
2022/01/15 13:49:17;;;;;;;6.25;2.45;;;;;;;;;;5070510;28;20111;-68
2022/01/15 13:54:59;;;;;;;6.18;2.55;;;;;;;;;;5070431;28;20044;-69
2022/01/15 13:57:26;;;;;;;4.35;2.30;;;;;;;;;;5070586;28;20120;-68
2022/01/15 14:00:22;;;;;;;5.72;2.40;;;;;;;;;;5070242;28;20468;-68
2022/01/15 14:02:50;;;;;;;7.00;2.60;;;;;;;;;;5061092;28;20028;-68
2022/01/15 14:05:22;;;;;;;5.22;2.40;;;;;;;;;;5070128;28;20028;-68
2022/01/15 14:07:48;;;;;;;6.88;2.40;;;;;;;;;;5070079;28;20480;-67
2022/01/15 14:10:19;;;;;;;6.57;2.53;;;;;;;;;;5070345;28;20398;-67
2022/01/15 14:12:56;;;;;;;6.55;2.47;;;;;;;;;;5069938;28;20438;-68
2022/01/15 14:15:31;;;;;;;6.55;2.15;;;;;;;;;;5070090;28;20025;-68
2022/01/15 14:18:00;;;;;;;5.25;2.53;;;;;;;;;;5069928;28;20039;-68
2022/01/15 14:20:51;;;;;;;4.28;2.45;;;;;;;;;;5069947;28;20060;-68
2022/01/15 14:23:34;;;;;;;4.88;2.42;;;;;;;;;;5069846;28;20036;-68
2022/01/15 14:26:14;;;;;;;7.38;2.90;;;;;;;;;;5070127;28;20552;-68
2022/01/15 14:28:40;;;;;;;5.25;2.50;;;;;;;;;;5070075;28;20083;-68
2022/01/15 14:31:05;;;;;;;6.05;2.67;;;;;;;;;;5069825;28;20049;-68
2022/01/15 14:33:30;;;;;;;6.88;2.60;;;;;;;;;;5069817;28;20371;-68
2022/01/15 14:35:56;;;;;;;7.47;2.47;;;;;;;;;;5069890;28;20036;-67
2022/01/15 14:38:22;;;;;;;6.75;2.40;;;;;;;;;;5069805;28;20028;-67
2022/01/15 14:40:49;;;;;;;13.05;4.30;;;;;;;;;;5070235;28;20590;-67
2022/01/15 14:43:15;;;;;;;20.65;6.57;;;;;;;;;;5069645;28;20190;-67
2022/01/15 14:45:41;;;;;;;9.07;3.38;;;;;;;;;;5069676;28;20209;-67
2022/01/15 14:48:06;;;;;;;7.32;3.22;;;;;;;;;;5070069;28;20059;-67
2022/01/15 14:50:32;;;;;;;8.38;2.97;;;;;;;;;;5072059;28;20436;-68
2022/01/15 14:52:58;;;;;;;7.78;2.90;;;;;;;;;;5073734;28;20035;-67
2022/01/15 14:55:23;;;;;;;10.40;3.20;;;;;;;;;;5073627;28;20033;-67
2022/01/15 14:57:49;;;;;;;7.18;3.05;;;;;;;;;;5073555;28;20036;-67
2022/01/15 15:00:15;;;;;;;7.88;3.03;;;;;;;;;;5073670;28;20241;-67
2022/01/15 15:02:40;;;;;;;6.72;3.08;;;;;;;;;;5073506;28;20513;-67
2022/01/15 15:05:08;;;;;;;11.32;4.18;;;;;;;;;;5073506;28;20033;-67
2022/01/15 15:07:34;;;;;;;10.80;4.20;;;;;;;;;;5072200;28;20496;-67
2022/01/15 15:10:00;;;;;;;11.57;4.18;;;;;;;;;;5073683;28;20059;-67
2022/01/15 15:12:41;;;;;;;8.98;4.15;;;;;;;;;;5072845;28;20036;-67
2022/01/15 15:15:10;;;;;;;10.80;4.10;;;;;;;;;;5073112;28;20043;-67